createdAt,value
2019-02-08T00:00:40.347Z,1006.56
2019-02-08T00:01:40.333Z,1006.57
2019-02-08T00:02:40.320Z,1006.60
2019-02-08T00:03:40.304Z,1006.62
2019-02-08T00:04:40.324Z,1006.60
2019-02-08T00:05:40.292Z,1006.66
2019-02-08T00:06:40.284Z,1006.64
2019-02-08T00:07:40.260Z,1006.62
2019-02-08T00:08:40.251Z,1006.66
2019-02-08T00:09:40.258Z,1006.72
2019-02-08T00:10:40.223Z,1006.72
2019-02-08T00:11:40.216Z,1006.67
2019-02-08T00:12:40.206Z,1006.67
2019-02-08T00:13:40.191Z,1006.73
2019-02-08T00:14:40.201Z,1006.80
2019-02-08T00:15:40.169Z,1006.76
2019-02-08T00:16:40.164Z,1006.71
2019-02-08T00:17:40.148Z,1006.75
2019-02-08T00:18:40.140Z,1006.64
2019-02-08T00:19:40.150Z,1006.78
2019-02-08T00:20:40.125Z,1006.77
2019-02-08T00:21:40.106Z,1006.74
2019-02-08T00:22:40.093Z,1006.68
2019-02-08T00:23:40.078Z,1006.79
2019-02-08T00:24:40.069Z,1006.77
2019-02-08T00:25:40.088Z,1006.76
2019-02-08T00:26:40.051Z,1006.78
2019-02-08T00:27:40.039Z,1006.80
2019-02-08T00:28:40.020Z,1006.78
2019-02-08T00:29:40.007Z,1006.76
2019-02-08T00:30:40.018Z,1006.76
2019-02-08T00:31:39.998Z,1006.76
2019-02-08T00:32:39.989Z,1006.71
2019-02-08T00:33:39.963Z,1006.78
2019-02-08T00:34:39.955Z,1006.81
2019-02-08T00:35:39.964Z,1006.82
2019-02-08T00:36:39.930Z,1006.82
2019-02-08T00:37:39.918Z,1006.79
2019-02-08T00:38:39.907Z,1006.81
2019-02-08T00:39:39.899Z,1006.77
2019-02-08T00:40:39.920Z,1006.79
2019-02-08T00:41:39.887Z,1006.83
2019-02-08T00:42:39.861Z,1006.80
2019-02-08T00:43:39.848Z,1006.82
2019-02-08T00:44:39.844Z,1006.83
2019-02-08T00:45:39.835Z,1006.82
2019-02-08T00:46:39.836Z,1006.86
2019-02-08T00:47:39.813Z,1006.85
2019-02-08T00:48:39.803Z,1006.85
2019-02-08T00:49:39.787Z,1006.87
2019-02-08T00:50:39.771Z,1006.91
2019-02-08T00:51:39.780Z,1006.86
2019-02-08T00:52:39.762Z,1006.85
2019-02-08T00:53:39.741Z,1006.87
2019-02-08T00:54:39.730Z,1006.86
2019-02-08T00:55:39.715Z,1006.88
2019-02-08T00:56:39.719Z,1006.93
2019-02-08T00:57:39.689Z,1006.91
2019-02-08T00:58:39.680Z,1006.95
2019-02-08T00:59:39.668Z,1007.02
2019-02-08T01:00:39.662Z,1006.98
2019-02-08T01:01:39.665Z,1006.98
2019-02-08T01:02:39.643Z,1006.98
2019-02-08T01:03:39.628Z,1006.96
2019-02-08T01:04:39.610Z,1006.94
2019-02-08T01:05:39.600Z,1006.99
2019-02-08T01:06:39.632Z,1006.97
2019-02-08T01:07:39.579Z,1006.94
2019-02-08T01:08:39.566Z,1006.98
2019-02-08T01:09:39.556Z,1006.95
2019-02-08T01:10:39.541Z,1007.00
2019-02-08T01:11:39.534Z,1007.05
2019-02-08T01:12:39.564Z,1007.00
2019-02-08T01:13:39.786Z,1007.07
2019-02-08T01:14:39.516Z,1007.03
2019-02-08T01:15:39.508Z,1007.01
2019-02-08T01:16:39.478Z,1006.95
2019-02-08T01:17:39.486Z,1007.06
2019-02-08T01:18:39.452Z,1007.09
2019-02-08T01:19:39.440Z,1007.08
2019-02-08T01:20:39.425Z,1007.08
2019-02-08T01:21:39.423Z,1007.05
2019-02-08T01:22:39.426Z,1007.03
2019-02-08T01:23:41.167Z,1007.03
2019-02-08T01:24:39.384Z,1007.08
2019-02-08T01:25:39.404Z,1007.07
2019-02-08T01:26:39.363Z,1007.04
2019-02-08T01:27:39.369Z,1007.03
2019-02-08T01:28:39.341Z,1007.05
2019-02-08T01:29:39.332Z,1007.05
2019-02-08T01:30:39.316Z,1007.10
2019-02-08T01:31:39.308Z,1007.02
2019-02-08T01:32:39.314Z,1007.07
2019-02-08T01:33:39.281Z,1007.08
2019-02-08T01:34:39.278Z,1007.14
2019-02-08T01:35:39.270Z,1007.06
2019-02-08T01:36:39.246Z,1007.07
2019-02-08T01:37:39.260Z,1007.05
2019-02-08T01:38:39.230Z,1007.12
2019-02-08T01:39:39.216Z,1007.10
2019-02-08T01:40:39.208Z,1007.07
2019-02-08T01:41:39.377Z,1007.10
2019-02-08T01:42:39.174Z,1007.11
2019-02-08T01:43:39.187Z,1007.14
2019-02-08T01:44:39.164Z,1007.14
2019-02-08T01:45:39.147Z,1007.13
2019-02-08T01:46:39.134Z,1007.08
2019-02-08T01:47:39.123Z,1007.07
2019-02-08T01:48:39.130Z,1007.14
2019-02-08T01:49:39.104Z,1007.13
2019-02-08T01:50:39.089Z,1007.14
2019-02-08T01:51:39.088Z,1007.15
2019-02-08T01:52:39.074Z,1007.19
2019-02-08T01:53:39.075Z,1007.01
2019-02-08T01:54:39.040Z,1007.13
2019-02-08T01:55:39.031Z,1007.27
2019-02-08T01:56:39.036Z,1007.32
2019-02-08T01:57:39.011Z,1007.30
2019-02-08T01:58:39.040Z,1007.25
2019-02-08T01:59:38.991Z,1007.17
2019-02-08T02:00:38.977Z,1007.19
2019-02-08T02:01:38.963Z,1007.32
2019-02-08T02:02:38.950Z,1007.35
2019-02-08T02:03:38.975Z,1007.34
2019-02-08T02:04:38.929Z,1007.25
2019-02-08T02:05:38.923Z,1007.28
2019-02-08T02:06:38.914Z,1007.31
2019-02-08T02:07:38.897Z,1007.29
2019-02-08T02:08:38.885Z,1007.28
2019-02-08T02:09:38.892Z,1007.32
2019-02-08T02:10:38.863Z,1007.30
2019-02-08T02:11:38.847Z,1007.26
2019-02-08T02:12:38.837Z,1007.29
2019-02-08T02:13:38.833Z,1007.32
2019-02-08T02:14:38.834Z,1007.36
2019-02-08T02:15:38.801Z,1007.25
2019-02-08T02:16:38.805Z,1007.33
2019-02-08T02:17:38.784Z,1007.30
2019-02-08T02:18:38.773Z,1007.34
2019-02-08T02:19:38.819Z,1007.37
2019-02-08T02:20:38.749Z,1007.29
2019-02-08T02:21:38.737Z,1007.33
2019-02-08T02:22:38.728Z,1007.36
2019-02-08T02:23:38.713Z,1007.35
2019-02-08T02:24:38.725Z,1007.31
2019-02-08T02:25:38.699Z,1007.37
2019-02-08T02:26:38.680Z,1007.36
2019-02-08T02:27:38.670Z,1007.33
2019-02-08T02:28:38.657Z,1007.34
2019-02-08T02:29:38.668Z,1007.38
2019-02-08T02:30:38.637Z,1007.35
2019-02-08T02:31:38.632Z,1007.40
2019-02-08T02:32:38.615Z,1007.41
2019-02-08T02:33:38.599Z,1007.38
2019-02-08T02:34:38.615Z,1007.37
2019-02-08T02:35:38.592Z,1007.36
2019-02-08T02:36:38.564Z,1007.37
2019-02-08T02:37:38.555Z,1007.41
2019-02-08T02:38:38.556Z,1007.40
2019-02-08T02:39:38.537Z,1007.41
2019-02-08T02:40:38.533Z,1007.39
2019-02-08T02:41:38.733Z,1007.46
2019-02-08T02:42:38.508Z,1007.44
2019-02-08T02:43:38.489Z,1007.40
2019-02-08T02:44:38.487Z,1007.45
2019-02-08T02:45:38.491Z,1007.47
2019-02-08T02:46:38.458Z,1007.45
2019-02-08T02:47:38.441Z,1007.44
2019-02-08T02:48:38.437Z,1007.47
2019-02-08T02:49:38.417Z,1007.50
2019-02-08T02:50:38.435Z,1007.49
2019-02-08T02:51:38.405Z,1007.45
2019-02-08T02:52:38.394Z,1007.46
2019-02-08T02:53:38.376Z,1007.48
2019-02-08T02:54:38.365Z,1007.44
2019-02-08T02:55:38.366Z,1007.50
2019-02-08T02:56:38.338Z,1007.46
2019-02-08T02:57:38.324Z,1007.50
2019-02-08T02:58:38.321Z,1007.45
2019-02-08T02:59:38.309Z,1007.48
2019-02-08T03:00:38.310Z,1007.46
2019-02-08T03:01:38.285Z,1007.45
2019-02-08T03:02:38.280Z,1007.41
2019-02-08T03:03:38.258Z,1007.38
2019-02-08T03:04:38.247Z,1007.38
2019-02-08T03:05:38.259Z,1007.42
2019-02-08T03:06:38.223Z,1007.39
2019-02-08T03:07:38.211Z,1007.45
2019-02-08T03:08:39.690Z,1007.41
2019-02-08T03:09:38.187Z,1007.47
2019-02-08T03:10:38.183Z,1007.42
2019-02-08T03:11:38.184Z,1007.39
2019-02-08T03:12:38.181Z,1007.40
2019-02-08T03:13:38.149Z,1007.40
2019-02-08T03:14:38.133Z,1007.38
2019-02-08T03:15:38.128Z,1007.35
2019-02-08T03:16:38.127Z,1007.43
2019-02-08T03:17:38.106Z,1007.35
2019-02-08T03:18:38.088Z,1007.39
2019-02-08T03:19:38.075Z,1007.42
2019-02-08T03:20:38.086Z,1007.41
2019-02-08T03:21:38.070Z,1007.47
2019-02-08T03:22:38.051Z,1007.40
2019-02-08T03:23:38.029Z,1007.39
2019-02-08T03:24:38.025Z,1007.43
2019-02-08T03:25:38.010Z,1007.39
2019-02-08T03:26:38.017Z,1007.43
2019-02-08T03:27:37.988Z,1007.46
2019-02-08T03:28:37.978Z,1007.44
2019-02-08T03:29:37.967Z,1007.42
2019-02-08T03:30:37.951Z,1007.46
2019-02-08T03:31:37.959Z,1007.53
2019-02-08T03:32:37.931Z,1007.47
2019-02-08T03:33:37.921Z,1007.46
2019-02-08T03:34:37.905Z,1007.43
2019-02-08T03:35:37.893Z,1007.42
2019-02-08T03:36:37.973Z,1007.41
2019-02-08T03:37:37.878Z,1007.45
2019-02-08T03:38:37.869Z,1007.48
2019-02-08T03:39:37.852Z,1007.45
2019-02-08T03:40:37.842Z,1007.49
2019-02-08T03:41:37.926Z,1007.48
2019-02-08T03:42:37.834Z,1007.49
2019-02-08T03:43:37.809Z,1007.52
2019-02-08T03:44:37.807Z,1007.53
2019-02-08T03:45:37.785Z,1007.49
2019-02-08T03:46:37.778Z,1007.57
2019-02-08T03:47:37.784Z,1007.55
2019-02-08T03:48:37.746Z,1007.53
2019-02-08T03:49:37.742Z,1007.60
2019-02-08T03:50:37.737Z,1007.60
2019-02-08T03:51:37.713Z,1007.59
2019-02-08T03:52:37.739Z,1007.59
2019-02-08T03:53:37.690Z,1007.59
2019-02-08T03:54:37.682Z,1007.55
2019-02-08T03:55:37.675Z,1007.58
2019-02-08T03:56:37.664Z,1007.60
2019-02-08T03:57:37.679Z,1007.57
2019-02-08T03:58:37.680Z,1007.61
2019-02-08T03:59:37.619Z,1007.63
2019-02-08T04:00:37.625Z,1007.64
2019-02-08T04:01:37.612Z,1007.64
2019-02-08T04:02:37.620Z,1007.61
2019-02-08T04:03:37.584Z,1007.65
2019-02-08T04:04:37.568Z,1007.65
2019-02-08T04:05:37.558Z,1007.64
2019-02-08T04:06:37.542Z,1007.65
2019-02-08T04:07:37.531Z,1007.62
2019-02-08T04:08:37.543Z,1007.67
2019-02-08T04:09:37.514Z,1007.67
2019-02-08T04:10:37.498Z,1007.65
2019-02-08T04:11:37.490Z,1007.67
2019-02-08T04:12:37.476Z,1007.69
2019-02-08T04:13:37.483Z,1007.69
2019-02-08T04:14:37.454Z,1007.79
2019-02-08T04:15:37.475Z,1007.74
2019-02-08T04:16:37.432Z,1007.77
2019-02-08T04:17:37.427Z,1007.76
2019-02-08T04:18:37.430Z,1007.77
2019-02-08T04:19:37.396Z,1007.82
2019-02-08T04:20:37.385Z,1007.81
2019-02-08T04:21:37.376Z,1007.82
2019-02-08T04:22:37.372Z,1007.81
2019-02-08T04:23:37.388Z,1007.81
2019-02-08T04:24:37.343Z,1007.81
2019-02-08T04:25:37.326Z,1007.84
2019-02-08T04:26:37.316Z,1007.82
2019-02-08T04:27:37.306Z,1007.80
2019-02-08T04:28:37.301Z,1007.81
2019-02-08T04:29:37.316Z,1007.87
2019-02-08T04:30:37.278Z,1007.86
2019-02-08T04:31:37.276Z,1007.83
2019-02-08T04:32:37.248Z,1007.86
2019-02-08T04:33:37.245Z,1007.85
2019-02-08T04:34:37.270Z,1007.90
2019-02-08T04:35:37.227Z,1007.90
2019-02-08T04:36:37.205Z,1007.91
2019-02-08T04:37:37.193Z,1007.89
2019-02-08T04:38:37.189Z,1007.98
2019-02-08T04:39:37.198Z,1007.94
2019-02-08T04:40:37.162Z,1007.98
2019-02-08T04:41:37.408Z,1007.95
2019-02-08T04:42:37.139Z,1007.96
2019-02-08T04:43:37.129Z,1007.97
2019-02-08T04:44:37.140Z,1007.99
2019-02-08T04:45:37.111Z,1007.95
2019-02-08T04:46:37.096Z,1007.94
2019-02-08T04:47:37.079Z,1007.92
2019-02-08T04:48:37.076Z,1008.01
2019-02-08T04:49:37.083Z,1007.97
2019-02-08T04:50:37.051Z,1008.02
2019-02-08T04:51:37.042Z,1007.99
2019-02-08T04:52:37.023Z,1008.00
2019-02-08T04:53:37.014Z,1007.97
2019-02-08T04:54:38.432Z,1008.02
2019-02-08T04:55:37.009Z,1008.00
2019-02-08T04:56:36.975Z,1008.03
2019-02-08T04:57:36.970Z,1008.04
2019-02-08T04:58:36.954Z,1008.03
2019-02-08T04:59:36.947Z,1008.02
2019-02-08T05:00:36.957Z,1008.07
2019-02-08T05:01:36.925Z,1008.04
2019-02-08T05:02:36.915Z,1008.08
2019-02-08T05:03:36.906Z,1008.08
2019-02-08T05:04:36.889Z,1008.14
2019-02-08T05:05:36.901Z,1008.04
2019-02-08T05:06:36.869Z,1008.10
2019-02-08T05:07:36.859Z,1008.12
2019-02-08T05:08:36.847Z,1008.17
2019-02-08T05:09:36.827Z,1008.16
2019-02-08T05:10:36.849Z,1008.15
2019-02-08T05:11:36.814Z,1008.20
2019-02-08T05:12:36.799Z,1008.18
2019-02-08T05:13:36.804Z,1008.21
2019-02-08T05:14:36.774Z,1008.22
2019-02-08T05:15:36.763Z,1008.17
2019-02-08T05:16:36.772Z,1008.13
2019-02-08T05:17:36.741Z,1008.20
2019-02-08T05:18:36.737Z,1008.20
2019-02-08T05:19:36.716Z,1008.16
2019-02-08T05:20:36.707Z,1008.16
2019-02-08T05:21:36.726Z,1008.15
2019-02-08T05:22:36.687Z,1008.17
2019-02-08T05:23:36.678Z,1008.17
2019-02-08T05:24:36.662Z,1008.16
2019-02-08T05:25:36.651Z,1008.17
2019-02-08T05:26:36.659Z,1008.11
2019-02-08T05:27:36.631Z,1008.10
2019-02-08T05:28:36.615Z,1008.12
2019-02-08T05:29:36.619Z,1008.17
2019-02-08T05:30:36.601Z,1008.12
2019-02-08T05:31:36.607Z,1008.15
2019-02-08T05:32:36.575Z,1008.12
2019-02-08T05:33:36.561Z,1008.17
2019-02-08T05:34:36.551Z,1008.13
2019-02-08T05:35:36.539Z,1008.17
2019-02-08T05:36:36.555Z,1008.15
2019-02-08T05:37:36.538Z,1008.15
2019-02-08T05:38:36.503Z,1008.23
2019-02-08T05:39:37.464Z,1008.19
2019-02-08T05:40:36.481Z,1008.16
2019-02-08T05:41:36.484Z,1008.20
2019-02-08T05:42:36.487Z,1008.24
2019-02-08T05:43:36.456Z,1008.21
2019-02-08T05:44:36.453Z,1008.19
2019-02-08T05:45:36.439Z,1008.19
2019-02-08T05:46:36.421Z,1008.24
2019-02-08T05:47:36.429Z,1008.22
2019-02-08T05:48:36.390Z,1008.28
2019-02-08T05:49:36.384Z,1008.27
2019-02-08T05:50:36.373Z,1008.29
2019-02-08T05:51:36.373Z,1008.22
2019-02-08T05:52:36.366Z,1008.31
2019-02-08T05:53:36.340Z,1008.28
2019-02-08T05:54:36.328Z,1008.27
2019-02-08T05:55:36.319Z,1008.22
2019-02-08T05:56:36.305Z,1008.26
2019-02-08T05:57:36.309Z,1008.28
2019-02-08T05:58:36.279Z,1008.29
2019-02-08T05:59:36.271Z,1008.22
2019-02-08T06:00:36.263Z,1008.25
2019-02-08T06:01:36.247Z,1008.24
2019-02-08T06:02:36.266Z,1008.25
2019-02-08T06:03:36.227Z,1008.26
2019-02-08T06:04:36.217Z,1008.23
2019-02-08T06:05:36.214Z,1008.22
2019-02-08T06:06:36.190Z,1008.27
2019-02-08T06:07:36.199Z,1008.29
2019-02-08T06:08:36.185Z,1008.30
2019-02-08T06:09:36.164Z,1008.30
2019-02-08T06:10:36.146Z,1008.31
2019-02-08T06:11:36.137Z,1008.33
2019-02-08T06:12:36.124Z,1008.34
2019-02-08T06:13:36.122Z,1008.33
2019-02-08T06:14:36.098Z,1008.34
2019-02-08T06:15:36.090Z,1008.31
2019-02-08T06:16:36.078Z,1008.36
2019-02-08T06:17:36.060Z,1008.36
2019-02-08T06:18:36.090Z,1008.38
2019-02-08T06:19:36.044Z,1008.44
2019-02-08T06:20:36.029Z,1008.42
2019-02-08T06:21:36.040Z,1008.41
2019-02-08T06:22:36.012Z,1008.41
2019-02-08T06:23:36.034Z,1008.41
2019-02-08T06:24:35.990Z,1008.42
2019-02-08T06:25:35.979Z,1008.47
2019-02-08T06:26:35.973Z,1008.47
2019-02-08T06:27:35.955Z,1008.47
2019-02-08T06:28:35.972Z,1008.42
2019-02-08T06:29:35.928Z,1008.46
2019-02-08T06:30:35.911Z,1008.43
2019-02-08T06:31:35.903Z,1008.45
2019-02-08T06:32:35.904Z,1008.43
2019-02-08T06:33:35.953Z,1008.47
2019-02-08T06:34:35.874Z,1008.50
2019-02-08T06:35:35.860Z,1008.48
2019-02-08T06:36:35.848Z,1008.50
2019-02-08T06:37:35.840Z,1008.46
2019-02-08T06:38:35.826Z,1008.48
2019-02-08T06:39:35.840Z,1008.51
2019-02-08T06:40:35.804Z,1008.47
2019-02-08T06:41:35.851Z,1008.57
2019-02-08T06:42:35.784Z,1008.54
2019-02-08T06:43:35.769Z,1008.56
2019-02-08T06:44:35.770Z,1008.59
2019-02-08T06:45:35.752Z,1008.52
2019-02-08T06:46:35.731Z,1008.57
2019-02-08T06:47:35.723Z,1008.53
2019-02-08T06:48:35.705Z,1008.54
2019-02-08T06:49:35.720Z,1008.55
2019-02-08T06:50:35.687Z,1008.52
2019-02-08T06:51:35.679Z,1008.56
2019-02-08T06:52:35.668Z,1008.55
2019-02-08T06:53:35.656Z,1008.59
2019-02-08T06:54:35.656Z,1008.61
2019-02-08T06:55:35.632Z,1008.60
2019-02-08T06:56:35.618Z,1008.61
2019-02-08T06:57:35.614Z,1008.59
2019-02-08T06:58:35.604Z,1008.63
2019-02-08T06:59:35.654Z,1008.62
2019-02-08T07:00:35.576Z,1008.60
2019-02-08T07:01:35.565Z,1008.67
2019-02-08T07:02:35.554Z,1008.69
2019-02-08T07:03:35.554Z,1008.68
2019-02-08T07:04:35.528Z,1008.67
2019-02-08T07:05:35.744Z,1008.68
2019-02-08T07:06:35.508Z,1008.65
2019-02-08T07:07:35.501Z,1008.71
2019-02-08T07:08:35.491Z,1008.70
2019-02-08T07:09:35.473Z,1008.71
2019-02-08T07:10:35.505Z,1008.70
2019-02-08T07:11:35.456Z,1008.70
2019-02-08T07:12:35.442Z,1008.72
2019-02-08T07:13:35.433Z,1008.75
2019-02-08T07:14:35.431Z,1008.79
2019-02-08T07:15:35.425Z,1008.85
2019-02-08T07:16:35.402Z,1008.78
2019-02-08T07:17:35.382Z,1008.80
2019-02-08T07:18:35.375Z,1008.83
2019-02-08T07:19:35.362Z,1008.78
2019-02-08T07:20:35.371Z,1008.81
2019-02-08T07:21:35.337Z,1008.84
2019-02-08T07:22:35.330Z,1008.83
2019-02-08T07:23:35.308Z,1008.78
2019-02-08T07:24:35.306Z,1008.85
2019-02-08T07:25:35.325Z,1008.83
2019-02-08T07:26:35.303Z,1008.88
2019-02-08T07:27:35.269Z,1008.87
2019-02-08T07:28:35.258Z,1008.83
2019-02-08T07:29:35.247Z,1008.90
2019-02-08T07:30:35.244Z,1008.88
2019-02-08T07:31:35.246Z,1008.86
2019-02-08T07:32:35.218Z,1008.88
2019-02-08T07:33:35.204Z,1008.87
2019-02-08T07:34:35.198Z,1008.87
2019-02-08T07:35:35.183Z,1008.87
2019-02-08T07:36:35.186Z,1008.85
2019-02-08T07:37:35.161Z,1008.88
2019-02-08T07:38:35.144Z,1008.89
2019-02-08T07:39:35.131Z,1008.87
2019-02-08T07:40:35.130Z,1008.86
2019-02-08T07:41:35.281Z,1008.91
2019-02-08T07:42:35.097Z,1008.93
2019-02-08T07:43:35.116Z,1008.94
2019-02-08T07:44:35.109Z,1008.97
2019-02-08T07:45:35.083Z,1008.93
2019-02-08T07:46:35.078Z,1008.86
2019-02-08T07:47:35.073Z,1008.89
2019-02-08T07:48:35.035Z,1008.88
2019-02-08T07:49:35.019Z,1008.92
2019-02-08T07:50:35.019Z,1008.91
2019-02-08T07:51:35.011Z,1008.91
2019-02-08T07:52:35.018Z,1008.92
2019-02-08T07:53:34.974Z,1009.01
2019-02-08T07:54:34.966Z,1008.96
2019-02-08T07:55:34.951Z,1008.98
2019-02-08T07:56:34.968Z,1008.95
2019-02-08T07:57:34.930Z,1008.99
2019-02-08T07:58:34.965Z,1008.97
2019-02-08T07:59:34.905Z,1008.97
2019-02-08T08:00:34.925Z,1008.99
2019-02-08T08:01:34.910Z,1008.97
2019-02-08T08:02:34.869Z,1009.04
2019-02-08T08:03:34.863Z,1009.02
2019-02-08T08:04:34.868Z,1009.08
2019-02-08T08:05:34.842Z,1009.08
2019-02-08T08:06:34.835Z,1009.03
2019-02-08T08:07:34.851Z,1009.05
2019-02-08T08:08:34.842Z,1009.04
2019-02-08T08:09:34.802Z,1009.00
2019-02-08T08:10:34.787Z,1009.00
2019-02-08T08:11:39.403Z,1008.97
2019-02-08T08:12:34.782Z,1009.00
2019-02-08T08:13:34.750Z,1009.00
2019-02-08T08:14:34.740Z,1009.10
2019-02-08T08:15:34.732Z,1009.11
2019-02-08T08:16:34.724Z,1009.12
2019-02-08T08:17:34.731Z,1009.16
2019-02-08T08:18:34.700Z,1009.12
2019-02-08T08:19:34.694Z,1009.09
2019-02-08T08:20:34.678Z,1009.16
2019-02-08T08:21:34.687Z,1009.09
2019-02-08T08:22:34.677Z,1009.11
2019-02-08T08:23:34.642Z,1009.09
2019-02-08T08:24:34.645Z,1009.12
2019-02-08T08:25:34.629Z,1009.09
2019-02-08T08:26:34.620Z,1009.03
2019-02-08T08:27:34.649Z,1009.07
2019-02-08T08:28:34.583Z,1009.06
2019-02-08T08:29:34.580Z,1009.04
2019-02-08T08:30:34.577Z,1009.05
2019-02-08T08:31:34.556Z,1008.98
2019-02-08T08:32:34.544Z,1008.95
2019-02-08T08:33:35.731Z,1008.96
2019-02-08T08:34:34.523Z,1008.96
2019-02-08T08:35:34.519Z,1009.00
2019-02-08T08:36:34.497Z,1009.00
2019-02-08T08:37:34.501Z,1009.01
2019-02-08T08:38:34.502Z,1008.97
2019-02-08T08:39:34.462Z,1008.98
2019-02-08T08:40:34.458Z,1009.00
2019-02-08T08:41:34.456Z,1009.01
2019-02-08T08:42:34.438Z,1009.03
2019-02-08T08:43:34.443Z,1009.01
2019-02-08T08:44:34.403Z,1008.99
2019-02-08T08:45:34.402Z,1009.01
2019-02-08T08:46:34.387Z,1009.01
2019-02-08T08:47:34.376Z,1008.99
2019-02-08T08:48:34.383Z,1008.98
2019-02-08T08:49:34.355Z,1009.06
2019-02-08T08:50:34.348Z,1009.04
2019-02-08T08:51:34.343Z,1009.15
2019-02-08T08:52:34.322Z,1009.08
2019-02-08T08:53:34.338Z,1009.11
2019-02-08T08:54:34.304Z,1009.12
2019-02-08T08:55:41.841Z,1009.16
2019-02-08T08:56:35.283Z,1009.10
2019-02-08T08:57:34.258Z,1009.12
2019-02-08T08:58:34.254Z,1009.11
2019-02-08T08:59:34.268Z,1009.12
2019-02-08T09:00:34.227Z,1009.14
2019-02-08T09:01:34.220Z,1009.15
2019-02-08T09:02:34.202Z,1009.12
2019-02-08T09:03:34.204Z,1009.06
2019-02-08T09:04:34.222Z,1009.09
2019-02-08T09:05:34.176Z,1009.16
2019-02-08T09:06:34.157Z,1009.05
2019-02-08T09:07:34.155Z,1009.11
2019-02-08T09:08:34.149Z,1009.09
2019-02-08T09:09:34.154Z,1009.07
2019-02-08T09:10:34.120Z,1009.08
2019-02-08T09:11:34.106Z,1009.07
2019-02-08T09:12:34.095Z,1009.05
2019-02-08T09:13:34.077Z,1009.01
2019-02-08T09:14:34.110Z,1009.04
2019-02-08T09:15:34.087Z,1009.07
2019-02-08T09:16:34.053Z,1009.01
2019-02-08T09:17:34.040Z,1009.09
2019-02-08T09:18:34.022Z,1009.07
2019-02-08T09:19:34.027Z,1009.11
2019-02-08T09:20:34.008Z,1009.05
2019-02-08T09:21:33.993Z,1009.09
2019-02-08T09:22:33.978Z,1009.06
2019-02-08T09:23:33.969Z,1009.03
2019-02-08T09:24:33.979Z,1009.00
2019-02-08T09:25:33.953Z,1009.00
2019-02-08T09:26:33.932Z,1009.06
2019-02-08T09:27:33.925Z,1008.93
2019-02-08T09:28:33.913Z,1008.95
2019-02-08T09:29:33.904Z,1008.94
2019-02-08T09:30:33.901Z,1008.88
2019-02-08T09:31:33.881Z,1008.94
2019-02-08T09:32:33.867Z,1008.91
2019-02-08T09:33:33.858Z,1008.91
2019-02-08T09:34:33.845Z,1008.90
2019-02-08T09:35:33.848Z,1008.84
2019-02-08T09:36:33.828Z,1008.92
2019-02-08T09:37:33.815Z,1008.89
2019-02-08T09:38:33.800Z,1008.83
2019-02-08T09:39:33.784Z,1008.89
2019-02-08T09:40:33.830Z,1008.86
2019-02-08T09:41:33.801Z,1008.81
2019-02-08T09:42:33.759Z,1008.84
2019-02-08T09:43:33.751Z,1008.89
2019-02-08T09:44:33.730Z,1008.82
2019-02-08T09:45:33.737Z,1008.82
2019-02-08T09:46:33.730Z,1008.86
2019-02-08T09:47:33.699Z,1008.85
2019-02-08T09:48:33.689Z,1008.77
2019-02-08T09:49:33.671Z,1008.77
2019-02-08T09:50:33.655Z,1008.78
2019-02-08T09:51:33.664Z,1008.85
2019-02-08T09:52:33.639Z,1008.83
2019-02-08T09:53:33.625Z,1008.84
2019-02-08T09:54:33.625Z,1008.79
2019-02-08T09:55:33.608Z,1008.81
2019-02-08T09:56:33.607Z,1008.83
2019-02-08T09:57:33.573Z,1008.81
2019-02-08T09:58:33.567Z,1008.76
2019-02-08T09:59:33.555Z,1008.81
2019-02-08T10:00:33.543Z,1008.80
2019-02-08T10:01:33.544Z,1008.89
2019-02-08T10:02:33.522Z,1008.87
2019-02-08T10:03:33.519Z,1008.80
2019-02-08T10:04:33.498Z,1008.86
2019-02-08T10:05:33.484Z,1008.84
2019-02-08T10:06:33.499Z,1008.85
2019-02-08T10:07:33.457Z,1008.83
2019-02-08T10:08:33.452Z,1008.75
2019-02-08T10:09:33.434Z,1008.83
2019-02-08T10:10:33.429Z,1008.83
2019-02-08T10:11:33.664Z,1008.80
2019-02-08T10:12:33.427Z,1008.84
2019-02-08T10:13:33.390Z,1008.80
2019-02-08T10:14:33.388Z,1008.81
2019-02-08T10:15:33.373Z,1008.84
2019-02-08T10:16:33.361Z,1008.76
2019-02-08T10:17:33.367Z,1008.77
2019-02-08T10:18:33.348Z,1008.79
2019-02-08T10:19:33.332Z,1008.81
2019-02-08T10:20:33.313Z,1008.82
2019-02-08T10:21:33.309Z,1008.85
2019-02-08T10:22:33.311Z,1008.87
2019-02-08T10:23:33.278Z,1008.86
2019-02-08T10:24:33.263Z,1008.83
2019-02-08T10:25:33.271Z,1008.74
2019-02-08T10:26:33.306Z,1008.74
2019-02-08T10:27:33.262Z,1008.71
2019-02-08T10:28:33.224Z,1008.89
2019-02-08T10:29:33.212Z,1008.74
2019-02-08T10:30:33.203Z,1008.78
2019-02-08T10:31:33.188Z,1008.85
2019-02-08T10:32:33.177Z,1008.77
2019-02-08T10:33:33.193Z,1008.82
2019-02-08T10:34:33.153Z,1008.84
2019-02-08T10:35:33.153Z,1008.79
2019-02-08T10:36:33.134Z,1008.80
2019-02-08T10:37:33.126Z,1008.80
2019-02-08T10:38:33.128Z,1008.80
2019-02-08T10:39:33.097Z,1008.70
2019-02-08T10:40:33.083Z,1008.76
2019-02-08T10:41:33.076Z,1008.75
2019-02-08T10:42:33.064Z,1008.76
2019-02-08T10:43:33.075Z,1008.88
2019-02-08T10:44:33.054Z,1008.76
2019-02-08T10:45:33.028Z,1008.70
2019-02-08T10:46:33.023Z,1008.66
2019-02-08T10:47:33.005Z,1008.67
2019-02-08T10:48:33.019Z,1008.66
2019-02-08T10:49:32.986Z,1008.63
2019-02-08T10:50:32.976Z,1008.64
2019-02-08T10:51:32.963Z,1008.59
2019-02-08T10:52:32.955Z,1008.57
2019-02-08T10:53:32.967Z,1008.57
2019-02-08T10:54:32.937Z,1008.54
2019-02-08T10:55:32.925Z,1008.59
2019-02-08T10:56:32.911Z,1008.61
2019-02-08T10:57:32.895Z,1008.52
2019-02-08T10:58:32.885Z,1008.55
2019-02-08T10:59:32.898Z,1008.53
2019-02-08T11:00:32.868Z,1008.55
2019-02-08T11:01:32.851Z,1008.52
2019-02-08T11:02:32.848Z,1008.51
2019-02-08T11:03:32.834Z,1008.48
2019-02-08T11:04:32.839Z,1008.41
2019-02-08T11:05:32.815Z,1008.42
2019-02-08T11:06:32.816Z,1008.47
2019-02-08T11:07:32.782Z,1008.44
2019-02-08T11:08:32.774Z,1008.46
2019-02-08T11:09:32.785Z,1008.43
2019-02-08T11:10:32.756Z,1008.40
2019-02-08T11:11:32.758Z,1008.42
2019-02-08T11:12:32.733Z,1008.39
2019-02-08T11:13:32.720Z,1008.43
2019-02-08T11:14:32.719Z,1008.46
2019-02-08T11:15:32.695Z,1008.53
2019-02-08T11:16:32.685Z,1008.55
2019-02-08T11:17:32.677Z,1008.46
2019-02-08T11:18:32.660Z,1008.44
2019-02-08T11:19:32.675Z,1008.40
2019-02-08T11:20:32.650Z,1008.43
2019-02-08T11:21:32.652Z,1008.38
2019-02-08T11:22:32.618Z,1008.41
2019-02-08T11:23:32.636Z,1008.40
2019-02-08T11:24:32.599Z,1008.46
2019-02-08T11:25:32.606Z,1008.41
2019-02-08T11:26:32.573Z,1008.42
2019-02-08T11:27:32.559Z,1008.40
2019-02-08T11:28:32.576Z,1008.37
2019-02-08T11:29:32.542Z,1008.39
2019-02-08T11:30:32.543Z,1008.34
2019-02-08T11:31:32.519Z,1008.31
2019-02-08T11:32:42.784Z,1008.30
2019-02-08T11:33:33.506Z,1008.27
2019-02-08T11:34:32.500Z,1008.26
2019-02-08T11:35:32.497Z,1008.28
2019-02-08T11:36:32.462Z,1008.22
2019-02-08T11:37:32.457Z,1008.27
2019-02-08T11:38:32.455Z,1008.30
2019-02-08T11:39:32.433Z,1008.35
2019-02-08T11:40:32.443Z,1008.25
2019-02-08T11:41:32.458Z,1008.32
2019-02-08T11:42:32.386Z,1008.38
2019-02-08T11:43:32.378Z,1008.29
2019-02-08T11:44:32.373Z,1008.25
2019-02-08T11:45:32.363Z,1008.21
2019-02-08T11:46:32.371Z,1008.21
2019-02-08T11:47:32.332Z,1008.13
2019-02-08T11:48:32.323Z,1008.20
2019-02-08T11:49:32.313Z,1008.17
2019-02-08T11:50:32.329Z,1008.14
2019-02-08T11:51:32.310Z,1008.13
2019-02-08T11:52:32.274Z,1008.15
2019-02-08T11:53:32.265Z,1008.14
2019-02-08T11:54:32.255Z,1008.12
2019-02-08T11:55:32.248Z,1008.18
2019-02-08T11:56:32.246Z,1008.19
2019-02-08T11:57:32.221Z,1008.15
2019-02-08T11:58:32.211Z,1008.16
2019-02-08T11:59:32.211Z,1008.19
2019-02-08T12:00:32.194Z,1008.14
2019-02-08T12:01:32.204Z,1008.12
2019-02-08T12:02:32.165Z,1008.13
2019-02-08T12:03:32.162Z,1008.08
2019-02-08T12:04:32.149Z,1008.04
2019-02-08T12:05:32.129Z,1008.12